createdAt,value
2019-04-04T00:00:27.003Z,8.45
2019-04-04T00:02:56.637Z,8.62
2019-04-04T00:05:26.315Z,8.43
2019-04-04T00:07:55.613Z,8.64
2019-04-04T00:10:25.322Z,8.65
2019-04-04T00:12:54.528Z,8.59
2019-04-04T00:15:23.791Z,8.50
2019-04-04T00:17:53.854Z,8.39
2019-04-04T00:20:24.010Z,8.64
2019-04-04T00:22:53.255Z,8.72
2019-04-04T00:25:22.510Z,8.96
2019-04-04T00:27:51.750Z,8.96
2019-04-04T00:30:23.580Z,8.62
2019-04-04T00:32:53.369Z,8.67
2019-04-04T00:35:22.607Z,8.68
2019-04-04T00:37:51.885Z,8.95
2019-04-04T00:40:21.469Z,8.83
2019-04-04T00:42:50.747Z,8.14
2019-04-04T00:45:20.039Z,8.07
2019-04-04T00:47:49.256Z,8.55
2019-04-04T00:50:18.878Z,8.61
2019-04-04T00:52:48.113Z,8.68
2019-04-04T00:55:17.367Z,8.53
2019-04-04T00:57:48.227Z,8.48
2019-04-04T01:00:18.080Z,8.49
2019-04-04T01:02:47.304Z,8.59
2019-04-04T01:05:16.521Z,8.45
2019-04-04T01:07:47.693Z,8.58
2019-04-04T01:10:19.063Z,8.38
2019-04-04T01:12:48.142Z,8.17
2019-04-04T01:15:17.907Z,8.28
2019-04-04T01:17:47.125Z,8.25
2019-04-04T01:20:18.114Z,8.48
2019-04-04T01:22:47.330Z,8.49
2019-04-04T01:25:16.565Z,8.55
2019-04-04T01:27:45.771Z,8.56
2019-04-04T01:30:15.413Z,8.65
2019-04-04T01:32:46.252Z,8.52
2019-04-04T01:35:15.541Z,8.91
2019-04-04T01:37:45.234Z,9.02
2019-04-04T01:40:14.460Z,9.20
2019-04-04T01:42:43.726Z,8.71
2019-04-04T01:45:13.726Z,9.02
2019-04-04T01:47:43.352Z,9.12
2019-04-04T01:50:12.669Z,9.19
2019-04-04T01:52:41.933Z,9.24
2019-04-04T01:55:11.490Z,9.35
2019-04-04T01:57:40.705Z,9.39
2019-04-04T02:00:10.853Z,9.22
2019-04-04T02:02:40.416Z,9.31
2019-04-04T02:05:09.755Z,9.47
2019-04-04T02:07:39.016Z,9.51
2019-04-04T02:10:08.355Z,9.23
2019-04-04T02:12:39.230Z,9.29
2019-04-04T02:15:09.050Z,9.14
2019-04-04T02:17:38.284Z,8.68
2019-04-04T02:20:08.083Z,8.80
2019-04-04T02:22:37.390Z,8.77
2019-04-04T02:25:07.025Z,8.47
2019-04-04T02:27:37.917Z,8.44
2019-04-04T02:30:08.121Z,8.61
2019-04-04T02:32:37.349Z,8.84
2019-04-04T02:35:10.293Z,9.16
2019-04-04T02:37:38.034Z,9.00
2019-04-04T02:40:09.003Z,9.08
2019-04-04T02:45:10.266Z,9.43
2019-04-04T02:47:42.636Z,8.62
2019-04-04T02:50:12.064Z,8.46
2019-04-04T02:52:45.683Z,8.84
2019-04-04T02:55:12.588Z,8.83
2019-04-04T02:57:42.520Z,8.49
2019-04-04T03:00:12.274Z,8.59
2019-04-04T03:02:43.174Z,8.76
2019-04-04T03:05:12.581Z,8.59
2019-04-04T03:07:41.840Z,8.15
2019-04-04T03:10:15.206Z,8.41
2019-04-04T03:12:42.331Z,8.73
2019-04-04T03:15:11.665Z,8.73
2019-04-04T03:17:41.305Z,8.64
2019-04-04T03:20:10.628Z,8.98
2019-04-04T03:22:39.895Z,8.86
2019-04-04T03:25:09.140Z,8.78
2019-04-04T03:27:38.365Z,9.12
2019-04-04T03:30:13.571Z,8.62
2019-04-04T03:32:38.907Z,8.14
2019-04-04T03:35:08.446Z,8.03
2019-04-04T03:37:40.561Z,8.10
2019-04-04T03:40:08.888Z,8.52
2019-04-04T03:42:38.100Z,8.78
2019-04-04T03:45:07.414Z,9.10
2019-04-04T03:47:36.631Z,9.01
2019-04-04T03:50:08.628Z,9.13
2019-04-04T03:52:43.313Z,8.92
2019-04-04T03:55:09.355Z,9.04
2019-04-04T03:57:38.610Z,9.23
2019-04-04T04:00:08.829Z,9.12
2019-04-04T04:02:38.058Z,9.23
2019-04-04T04:05:23.788Z,9.33
2019-04-04T04:07:53.444Z,9.12
2019-04-04T04:10:22.754Z,9.12
2019-04-04T04:12:52.468Z,9.45
2019-04-04T04:15:22.832Z,9.26
2019-04-04T04:17:53.408Z,9.39
2019-04-04T04:20:23.495Z,9.14
2019-04-04T04:22:53.261Z,9.35
2019-04-04T04:25:23.056Z,9.46
2019-04-04T04:27:53.942Z,9.47
2019-04-04T04:30:23.320Z,9.45
2019-04-04T04:32:57.648Z,9.52
2019-04-04T04:35:26.888Z,9.52
2019-04-04T04:37:56.140Z,9.63
2019-04-04T04:40:25.449Z,9.63
2019-04-04T04:42:54.718Z,9.45
2019-04-04T04:45:24.032Z,9.42
2019-04-04T04:47:57.079Z,9.51
2019-04-04T04:50:24.731Z,9.68
2019-04-04T04:52:53.975Z,9.90
2019-04-04T04:55:24.504Z,9.76
2019-04-04T04:57:56.356Z,9.50
2019-04-04T05:00:27.749Z,9.57
2019-04-04T05:02:56.522Z,9.55
2019-04-04T05:05:25.779Z,9.32
2019-04-04T05:07:55.214Z,8.68
2019-04-04T05:10:24.916Z,8.85
2019-04-04T05:12:56.269Z,8.78
2019-04-04T05:15:25.527Z,8.53
2019-04-04T05:17:55.198Z,8.93
2019-04-04T05:20:25.541Z,8.66
2019-04-04T05:22:55.446Z,9.05
2019-04-04T05:25:25.267Z,9.16
2019-04-04T05:27:54.613Z,9.21
2019-04-04T05:30:23.926Z,9.24
2019-04-04T05:32:56.351Z,9.39
2019-04-04T05:35:24.582Z,9.10
2019-04-04T05:37:53.839Z,9.24
2019-04-04T05:40:24.291Z,9.41
2019-04-04T05:42:53.567Z,9.59
2019-04-04T05:45:22.826Z,9.67
2019-04-04T05:47:55.090Z,9.41
2019-04-04T05:50:23.598Z,9.46
2019-04-04T05:52:52.895Z,9.69
2019-04-04T05:55:22.692Z,9.74
2019-04-04T05:57:51.940Z,9.24
2019-04-04T06:00:21.360Z,9.25
2019-04-04T06:02:51.429Z,9.19
2019-04-04T06:05:50.926Z,9.14
2019-04-04T06:08:52.136Z,9.03
2019-04-04T06:11:26.178Z,8.99
2019-04-04T06:13:59.021Z,8.76
2019-04-04T06:16:28.116Z,8.56
2019-04-04T06:18:57.348Z,8.70
2019-04-04T06:21:27.152Z,9.01
2019-04-04T06:23:56.755Z,8.64
2019-04-04T06:26:25.997Z,8.73
2019-04-04T06:28:55.699Z,8.59
2019-04-04T06:31:26.912Z,8.50
2019-04-04T06:33:55.883Z,8.43
2019-04-04T06:36:25.679Z,8.45
2019-04-04T06:38:54.974Z,8.82
2019-04-04T06:41:24.212Z,8.88
2019-04-04T06:43:53.923Z,8.91
2019-04-04T06:46:27.076Z,9.06
2019-04-04T06:48:56.295Z,9.27
2019-04-04T06:51:31.571Z,9.27
2019-04-04T06:54:00.921Z,9.45
2019-04-04T06:56:32.025Z,9.54
2019-04-04T06:59:01.608Z,9.69
2019-04-04T07:01:30.944Z,9.63
2019-04-04T07:04:00.294Z,9.71
2019-04-04T07:06:30.153Z,9.55
2019-04-04T07:08:59.444Z,9.49
2019-04-04T07:11:28.763Z,9.47
2019-04-04T07:13:59.073Z,9.65
2019-04-04T07:16:28.961Z,9.46
2019-04-04T07:18:58.257Z,9.49
2019-04-04T07:21:27.952Z,9.52
2019-04-04T07:23:59.533Z,9.47
2019-04-04T07:26:28.157Z,9.54
2019-04-04T07:28:57.919Z,9.65
2019-04-04T07:31:27.391Z,9.58
2019-04-04T07:33:56.679Z,9.47
2019-04-04T07:36:26.385Z,9.31
2019-04-04T07:38:55.627Z,9.32
2019-04-04T07:41:24.887Z,9.42
2019-04-04T07:43:54.174Z,9.56
2019-04-04T07:46:23.465Z,9.55
2019-04-04T07:48:53.137Z,9.60
2019-04-04T07:51:22.396Z,9.66
2019-04-04T07:53:51.690Z,9.78
2019-04-04T07:56:21.245Z,9.61
2019-04-04T07:58:50.539Z,9.63
2019-04-04T08:01:19.936Z,9.48
2019-04-04T08:03:49.581Z,9.32
2019-04-04T08:06:18.876Z,9.42
2019-04-04T08:08:48.190Z,9.36
2019-04-04T08:11:18.004Z,9.34
2019-04-04T08:13:47.356Z,9.39
2019-04-04T08:16:16.583Z,9.40
2019-04-04T08:18:46.286Z,9.36
2019-04-04T08:21:16.330Z,9.21
2019-04-04T08:23:45.660Z,9.01
2019-04-04T08:26:15.232Z,9.06
2019-04-04T08:28:44.511Z,8.96
2019-04-04T08:31:13.746Z,8.97
2019-04-04T08:33:43.366Z,9.13
2019-04-04T08:36:12.639Z,9.16
2019-04-04T08:38:41.891Z,9.02
2019-04-04T08:41:11.589Z,9.15
2019-04-04T08:43:44.400Z,9.20
2019-04-04T08:46:20.043Z,9.29
2019-04-04T08:48:59.434Z,9.41
2019-04-04T08:51:29.275Z,9.24
2019-04-04T08:54:04.333Z,9.10
2019-04-04T08:56:41.759Z,9.14
2019-04-04T08:59:20.791Z,9.29
2019-04-04T09:01:53.265Z,9.38
2019-04-04T09:04:24.189Z,9.16
2019-04-04T09:06:54.219Z,9.17
2019-04-04T09:09:23.545Z,9.06
2019-04-04T09:11:53.773Z,9.39
2019-04-04T09:14:23.397Z,9.14
2019-04-04T09:16:53.098Z,9.40
2019-04-04T09:22:25.090Z,9.23
2019-04-04T09:25:01.572Z,9.09
2019-04-04T09:27:31.044Z,9.20
2019-04-04T09:30:05.467Z,9.03
2019-04-04T09:32:34.848Z,9.15
2019-04-04T09:35:04.324Z,9.35
2019-04-04T09:37:36.617Z,9.51
2019-04-04T09:40:09.263Z,9.77
2019-04-04T09:42:41.356Z,9.69
2019-04-04T09:45:10.810Z,9.49
2019-04-04T09:47:40.068Z,9.13
2019-04-04T09:50:10.399Z,9.36
2019-04-04T09:52:40.660Z,9.28
2019-04-04T09:55:10.118Z,9.56
2019-04-04T09:57:39.753Z,9.27
2019-04-04T10:00:12.163Z,9.39
2019-04-04T10:02:41.705Z,9.45
2019-04-04T10:05:11.363Z,9.63
2019-04-04T10:07:41.354Z,9.80
2019-04-04T10:10:12.148Z,9.61
2019-04-04T10:12:41.726Z,9.68
2019-04-04T10:15:11.367Z,9.68
2019-04-04T10:17:40.686Z,9.49
2019-04-04T10:20:10.491Z,9.59
2019-04-04T10:22:39.704Z,9.48
2019-04-04T10:25:09.069Z,9.45
2019-04-04T10:27:38.738Z,9.63
2019-04-04T10:30:08.551Z,9.52
2019-04-04T10:32:37.897Z,9.44
2019-04-04T10:35:07.809Z,9.38
2019-04-04T10:37:37.036Z,9.55
2019-04-04T10:40:09.190Z,9.68
2019-04-04T10:42:38.409Z,9.77
2019-04-04T10:45:08.722Z,9.70
2019-04-04T10:47:38.634Z,9.71
2019-04-04T10:50:08.995Z,9.91
2019-04-04T10:52:38.265Z,9.95
2019-04-04T10:55:08.438Z,9.79
2019-04-04T10:57:37.680Z,9.55
2019-04-04T11:00:08.154Z,9.51
2019-04-04T11:02:37.795Z,9.75
2019-04-04T11:05:07.145Z,9.77
2019-04-04T11:07:36.378Z,9.66
2019-04-04T11:10:07.120Z,9.78
2019-04-04T11:12:36.357Z,9.79
2019-04-04T11:15:06.020Z,9.68
2019-04-04T11:17:35.692Z,9.87
2019-04-04T11:20:08.244Z,9.89
2019-04-04T11:22:37.467Z,9.78
2019-04-04T11:25:06.847Z,9.86
2019-04-04T11:27:36.178Z,9.75
2019-04-04T11:30:08.968Z,9.74
2019-04-04T11:32:38.330Z,9.82
2019-04-04T11:35:07.859Z,9.78
2019-04-04T11:37:37.506Z,10.03
2019-04-04T11:40:06.975Z,10.03
2019-04-04T11:42:36.250Z,10.14
2019-04-04T11:45:06.023Z,10.07
2019-04-04T11:47:35.287Z,10.01
2019-04-04T11:50:06.376Z,10.17
2019-04-04T11:52:35.969Z,10.03
2019-04-04T11:55:05.755Z,9.82
2019-04-04T11:57:35.019Z,9.72
2019-04-04T12:00:08.631Z,10.04
2019-04-04T12:02:37.881Z,9.82
2019-04-04T12:05:07.385Z,9.96
2019-04-04T12:07:39.563Z,10.11
2019-04-04T12:10:09.142Z,10.05
2019-04-04T12:12:39.070Z,10.00
2019-04-04T12:15:09.256Z,10.12
2019-04-04T12:17:38.522Z,10.12
2019-04-04T12:20:08.409Z,9.98
2019-04-04T12:22:37.687Z,10.05
2019-04-04T12:25:07.068Z,10.00
2019-04-04T12:27:36.679Z,9.99
2019-04-04T12:30:10.520Z,10.20
2019-04-04T12:32:43.617Z,10.02
2019-04-04T12:35:13.446Z,9.97
2019-04-04T12:37:42.707Z,10.05
2019-04-04T12:40:20.571Z,9.86
2019-04-04T12:42:43.578Z,9.32
2019-04-04T12:45:13.259Z,9.13
2019-04-04T12:47:42.519Z,8.83
2019-04-04T12:50:12.298Z,9.09
2019-04-04T12:52:42.535Z,8.95
2019-04-04T12:55:11.833Z,8.96
2019-04-04T12:57:42.489Z,8.84
2019-04-04T13:00:11.913Z,8.61
2019-04-04T13:02:41.192Z,9.03
2019-04-04T13:05:10.913Z,9.03
2019-04-04T13:07:40.132Z,9.27
2019-04-04T13:10:11.857Z,9.25
2019-04-04T13:12:41.587Z,9.35
2019-04-04T13:15:11.090Z,8.85
2019-04-04T13:17:40.565Z,8.73
2019-04-04T13:20:10.155Z,9.06
2019-04-04T13:22:39.407Z,9.29
2019-04-04T13:25:10.308Z,8.93
2019-04-04T13:27:40.181Z,9.02
2019-04-04T13:30:11.472Z,9.19
2019-04-04T13:32:41.050Z,9.40
2019-04-04T13:35:10.635Z,9.60
2019-04-04T13:37:39.932Z,9.74
2019-04-04T13:40:09.948Z,9.97
2019-04-04T13:42:39.217Z,9.77
2019-04-04T13:45:09.034Z,9.27
2019-04-04T13:47:40.260Z,9.48
2019-04-04T13:50:12.467Z,9.92
2019-04-04T13:52:41.645Z,9.72
2019-04-04T13:55:11.019Z,9.83
2019-04-04T13:57:40.310Z,9.44
2019-04-04T14:00:10.733Z,10.10
2019-04-04T14:02:39.969Z,10.13
2019-04-04T14:05:11.476Z,10.42
2019-04-04T14:07:43.424Z,10.61
2019-04-04T14:10:11.967Z,10.48
2019-04-04T14:12:41.434Z,10.51
2019-04-04T14:15:11.432Z,10.75
2019-04-04T14:17:43.518Z,10.79
2019-04-04T14:20:11.924Z,10.83
2019-04-04T14:22:41.605Z,10.73
2019-04-04T14:25:10.876Z,10.66
2019-04-04T14:27:40.111Z,10.85
2019-04-04T14:30:11.180Z,10.89
2019-04-04T14:32:40.477Z,10.76
2019-04-04T14:35:10.032Z,10.64
2019-04-04T14:37:39.655Z,10.65
2019-04-04T14:40:09.254Z,10.68
2019-04-04T14:42:38.576Z,10.90
2019-04-04T14:45:08.600Z,11.08
2019-04-04T14:47:37.957Z,10.97
2019-04-04T14:50:07.506Z,10.99
2019-04-04T14:52:39.485Z,11.00
2019-04-04T14:55:08.820Z,10.95
2019-04-04T14:57:38.158Z,10.82
2019-04-04T15:00:09.701Z,10.36
2019-04-04T15:05:19.841Z,9.75
2019-04-04T15:07:49.201Z,9.23
2019-04-04T15:10:19.121Z,9.21
2019-04-04T15:12:48.672Z,9.66
2019-04-04T15:15:18.076Z,9.72
2019-04-04T15:17:47.882Z,9.86
2019-04-04T15:20:19.118Z,9.81
2019-04-04T15:22:48.623Z,9.68
2019-04-04T15:25:18.473Z,9.47
2019-04-04T15:27:47.933Z,9.32
2019-04-04T15:30:17.471Z,9.53
2019-04-04T15:32:47.476Z,10.11
2019-04-04T15:35:16.841Z,10.09
2019-04-04T15:37:46.292Z,10.36
2019-04-04T15:40:17.422Z,10.14
2019-04-04T15:42:46.870Z,10.34
2019-04-04T15:45:16.540Z,10.42
2019-04-04T15:47:46.615Z,10.31
2019-04-04T15:50:16.487Z,9.90
2019-04-04T15:52:45.816Z,10.22
2019-04-04T15:55:15.628Z,10.53
2019-04-04T15:57:45.072Z,10.55
2019-04-04T16:00:14.789Z,10.55
2019-04-04T16:02:44.899Z,10.78
2019-04-04T16:05:14.910Z,10.68
2019-04-04T16:07:44.486Z,10.34
2019-04-04T16:10:14.510Z,10.39
2019-04-04T16:12:44.056Z,10.44
2019-04-04T16:15:13.831Z,10.76
2019-04-04T16:17:43.790Z,10.97
2019-04-04T16:20:13.808Z,10.94
2019-04-04T16:22:43.399Z,11.10
2019-04-04T16:25:13.458Z,11.41
2019-04-04T16:27:43.122Z,11.04
2019-04-04T16:30:14.767Z,10.84
2019-04-04T16:32:45.083Z,10.93
2019-04-04T16:35:14.439Z,11.47
2019-04-04T16:37:43.729Z,11.49
2019-04-04T16:40:15.396Z,11.57
2019-04-04T16:42:45.000Z,11.53
2019-04-04T16:45:14.596Z,11.19
2019-04-04T16:47:47.997Z,10.79
2019-04-04T16:50:17.979Z,11.17
2019-04-04T16:52:47.577Z,11.54
2019-04-04T16:55:17.747Z,11.11
2019-04-04T16:57:47.408Z,10.84
2019-04-04T17:00:20.629Z,10.49
2019-04-04T17:02:49.228Z,9.85
2019-04-04T17:05:18.968Z,9.91
2019-04-04T17:07:48.594Z,9.77
2019-04-04T17:10:18.883Z,9.72
2019-04-04T17:17:00.118Z,9.53
2019-04-04T17:19:30.540Z,9.77
2019-04-04T17:22:08.626Z,9.30
2019-04-04T17:24:38.943Z,9.13
2019-04-04T17:27:08.915Z,9.04
2019-04-04T17:29:39.207Z,9.18
2019-04-04T17:32:13.967Z,9.29
2019-04-04T17:34:44.339Z,8.99
2019-04-04T17:37:17.712Z,9.07
2019-04-04T17:39:48.066Z,9.32
2019-04-04T17:42:29.119Z,9.35
2019-04-04T17:45:01.157Z,9.51
2019-04-04T17:47:42.315Z,9.21
2019-04-04T17:50:12.340Z,9.26
2019-04-04T17:53:15.613Z,9.00
2019-04-04T17:55:58.615Z,9.16
2019-04-04T17:58:29.806Z,9.38
2019-04-04T18:01:55.489Z,9.51
2019-04-04T18:04:48.565Z,9.61
2019-04-04T18:07:50.007Z,9.33
2019-04-04T18:10:23.399Z,9.08
2019-04-04T18:12:56.622Z,8.95
2019-04-04T18:16:00.421Z,8.82
2019-04-04T18:18:32.107Z,9.02
2019-04-04T18:21:02.584Z,8.99
2019-04-04T18:23:34.463Z,9.00
2019-04-04T18:26:07.428Z,9.03
2019-04-04T18:28:57.769Z,9.02
2019-04-04T18:32:08.701Z,9.14
2019-04-04T18:35:18.553Z,9.03
2019-04-04T18:37:55.505Z,9.06
2019-04-04T18:40:33.995Z,8.94
2019-04-04T18:46:50.034Z,8.84
2019-04-04T18:49:19.963Z,8.74
2019-04-04T18:51:49.629Z,8.56
2019-04-04T18:54:19.681Z,8.59
2019-04-04T18:56:49.446Z,8.62
2019-04-04T18:59:19.126Z,8.83
2019-04-04T19:01:49.365Z,8.71
2019-04-04T19:04:21.048Z,8.61
2019-04-04T19:06:50.959Z,8.82
2019-04-04T19:09:20.729Z,8.94
2019-04-04T19:11:53.216Z,9.20
2019-04-04T19:14:29.954Z,9.11
2019-04-04T19:16:57.306Z,9.10
2019-04-04T19:19:29.188Z,9.11
2019-04-04T19:21:59.292Z,8.90
2019-04-04T19:24:29.099Z,8.86
2019-04-04T19:26:59.033Z,9.02
2019-04-04T19:29:31.477Z,9.09
2019-04-04T19:32:02.696Z,8.94
2019-04-04T19:34:34.331Z,9.06
2019-04-04T19:37:08.219Z,9.16
2019-04-04T19:39:38.432Z,8.98
2019-04-04T19:42:08.073Z,8.84
2019-04-04T19:44:38.292Z,8.81
2019-04-04T19:47:08.041Z,8.99
2019-04-04T19:49:38.957Z,8.77
2019-04-04T19:52:10.920Z,8.59
2019-04-04T19:54:40.624Z,8.79
2019-04-04T19:57:10.257Z,8.69
2019-04-04T19:59:40.462Z,8.53
2019-04-04T20:02:10.187Z,8.69
2019-04-04T20:04:40.015Z,8.72
2019-04-04T20:07:10.202Z,8.81
2019-04-04T20:09:39.940Z,8.83
2019-04-04T20:12:09.697Z,8.89
2019-04-04T20:14:39.896Z,8.78
2019-04-04T20:24:21.970Z,9.03
2019-04-04T20:26:54.581Z,8.71
2019-04-04T20:29:25.815Z,8.76
2019-04-04T20:31:56.704Z,8.86
2019-04-04T20:34:26.471Z,9.09
2019-04-04T20:36:56.614Z,9.27
2019-04-04T20:39:27.771Z,9.51
2019-04-04T20:41:57.443Z,9.75
2019-04-04T20:44:27.156Z,9.71
2019-04-04T20:46:58.378Z,10.06
2019-04-04T20:49:27.989Z,10.23
2019-04-04T20:51:57.646Z,9.87
2019-04-04T20:54:30.685Z,9.81
2019-04-04T20:57:02.886Z,9.84
2019-04-04T20:59:33.877Z,10.15
2019-04-04T21:02:07.868Z,10.24
2019-04-04T21:04:38.239Z,10.19
2019-04-04T21:07:07.548Z,10.49
2019-04-04T21:09:37.926Z,10.38
2019-04-04T21:12:07.197Z,10.18
2019-04-04T21:14:39.616Z,9.89
2019-04-04T21:17:08.882Z,9.24
2019-04-04T21:19:38.176Z,9.06
2019-04-04T21:22:08.027Z,9.12
2019-04-04T21:24:39.186Z,9.59
2019-04-04T21:27:13.986Z,9.83
2019-04-04T21:29:43.262Z,9.92
2019-04-04T21:32:12.978Z,10.03
2019-04-04T21:34:45.876Z,9.75
2019-04-04T21:37:18.976Z,9.46
2019-04-04T21:39:48.525Z,9.59
2019-04-04T21:42:17.801Z,9.21
2019-04-04T21:44:47.106Z,9.10
2019-04-04T21:47:16.746Z,8.90
2019-04-04T21:49:45.978Z,9.17
2019-04-04T21:52:17.007Z,8.89
2019-04-04T21:54:46.283Z,9.25
2019-04-04T21:57:15.981Z,9.29
2019-04-04T21:59:47.713Z,9.05
2019-04-04T22:02:17.090Z,9.40
2019-04-04T22:04:46.683Z,9.33
2019-04-04T22:07:18.430Z,9.03
2019-04-04T22:09:47.693Z,9.24
2019-04-04T22:12:17.451Z,9.25
2019-04-04T22:14:49.685Z,9.08
2019-04-04T22:17:26.450Z,8.87
2019-04-04T22:20:15.348Z,8.84
2019-04-04T22:22:44.569Z,8.81
2019-04-04T22:25:17.273Z,8.63
2019-04-04T22:27:52.329Z,9.23
2019-04-04T22:30:21.662Z,9.26
2019-04-04T22:32:51.983Z,9.52
2019-04-04T22:35:21.698Z,9.48
2019-04-04T22:37:51.044Z,9.40
2019-04-04T22:40:22.704Z,9.45
2019-04-04T22:42:51.942Z,8.81
2019-04-04T22:45:21.598Z,9.22
2019-04-04T22:47:52.511Z,9.34
2019-04-04T22:50:21.775Z,9.75
2019-04-04T22:52:51.055Z,9.65
2019-04-04T22:55:21.614Z,9.49
2019-04-04T22:57:51.157Z,9.50
2019-04-04T23:00:21.450Z,9.47
2019-04-04T23:02:50.708Z,9.33
2019-04-04T23:05:32.396Z,9.21
2019-04-04T23:08:07.610Z,9.43
2019-04-04T23:10:37.346Z,8.89
2019-04-04T23:13:14.740Z,8.39
2019-04-04T23:15:52.575Z,8.19
2019-04-04T23:18:23.888Z,8.38
2019-04-04T23:20:53.334Z,7.90
2019-04-04T23:23:25.512Z,7.74
2019-04-04T23:25:55.875Z,7.84
2019-04-04T23:28:25.116Z,7.89
2019-04-04T23:30:54.406Z,7.68
2019-04-04T23:33:24.077Z,7.98
2019-04-04T23:35:53.345Z,7.84
2019-04-04T23:38:28.542Z,7.93
2019-04-04T23:40:57.817Z,7.80
2019-04-04T23:43:29.447Z,7.72
2019-04-04T23:45:58.805Z,7.70
2019-04-04T23:48:30.838Z,7.88
2019-04-04T23:51:01.646Z,7.97
2019-04-04T23:53:31.950Z,7.83
2019-04-04T23:56:01.928Z,7.67
2019-04-04T23:58:46.811Z,7.65
